createdAt,value
2023-05-04T00:02:17.870Z,2.30
2023-05-04T00:04:44.446Z,1.60
2023-05-04T00:07:11.576Z,1.50
2023-05-04T00:09:38.290Z,2.10
2023-05-04T00:12:05.311Z,2.00
2023-05-04T00:14:31.872Z,2.13
2023-05-04T00:16:59.036Z,1.77
2023-05-04T00:19:25.920Z,1.90
2023-05-04T00:21:52.391Z,1.60
2023-05-04T00:24:19.394Z,1.67
2023-05-04T00:26:45.935Z,1.85
2023-05-04T00:29:12.516Z,1.80
2023-05-04T00:31:39.598Z,2.20
2023-05-04T00:34:07.745Z,1.70
2023-05-04T00:36:36.229Z,2.13
2023-05-04T00:39:02.838Z,1.90
2023-05-04T00:41:29.376Z,2.10
2023-05-04T00:43:56.451Z,1.92
2023-05-04T00:46:25.807Z,1.65
2023-05-04T00:48:52.756Z,1.85
2023-05-04T00:51:21.548Z,1.45
2023-05-04T00:53:48.322Z,1.70
2023-05-04T00:56:16.734Z,1.90
2023-05-04T00:58:43.402Z,1.85
2023-05-04T01:01:10.016Z,1.90
2023-05-04T01:03:36.926Z,2.13
2023-05-04T01:06:33.405Z,1.65
2023-05-04T01:09:27.349Z,1.75
2023-05-04T01:12:27.793Z,1.85
2023-05-04T01:14:57.167Z,2.08
2023-05-04T01:17:23.917Z,2.33
2023-05-04T01:19:53.818Z,1.98
2023-05-04T01:22:21.778Z,2.03
2023-05-04T01:24:48.832Z,2.10
2023-05-04T01:27:24.343Z,2.08
2023-05-04T01:30:03.224Z,2.33
2023-05-04T01:32:31.988Z,1.80
2023-05-04T01:35:01.748Z,2.42
2023-05-04T01:37:28.282Z,2.28
2023-05-04T01:39:55.098Z,2.20
2023-05-04T01:42:23.290Z,2.60
2023-05-04T01:44:50.509Z,2.60
2023-05-04T01:47:17.704Z,2.22
2023-05-04T01:49:46.211Z,2.15
2023-05-04T01:52:12.868Z,2.33
2023-05-04T01:54:39.518Z,2.25
2023-05-04T01:57:06.174Z,1.98
2023-05-04T01:59:32.780Z,2.13
2023-05-04T02:01:59.408Z,2.20
2023-05-04T02:04:26.699Z,2.33
2023-05-04T02:06:53.253Z,1.90
2023-05-04T02:09:19.739Z,1.77
2023-05-04T02:11:46.554Z,2.38
2023-05-04T02:14:13.217Z,1.75
2023-05-04T02:16:40.174Z,1.85
2023-05-04T02:19:07.335Z,2.20
2023-05-04T02:21:35.611Z,1.80
2023-05-04T02:24:02.193Z,1.90
2023-05-04T02:26:30.079Z,1.90
2023-05-04T02:28:56.624Z,2.22
2023-05-04T02:31:23.458Z,2.15
2023-05-04T02:33:51.709Z,1.88
2023-05-04T02:36:18.290Z,2.42
2023-05-04T02:38:44.767Z,2.15
2023-05-04T02:41:11.445Z,2.05
2023-05-04T02:43:38.137Z,2.13
2023-05-04T02:46:04.749Z,2.17
2023-05-04T02:48:31.385Z,2.17
2023-05-04T02:50:58.356Z,1.83
2023-05-04T02:53:25.089Z,2.10
2023-05-04T02:55:51.745Z,2.50
2023-05-04T02:58:19.578Z,2.13
2023-05-04T03:00:46.171Z,2.20
2023-05-04T03:03:12.830Z,2.67
2023-05-04T03:05:39.709Z,1.92
2023-05-04T03:08:06.548Z,2.03
2023-05-04T03:10:33.056Z,2.30
2023-05-04T03:13:03.923Z,2.30
2023-05-04T03:15:30.520Z,2.20
2023-05-04T03:17:57.630Z,2.28
2023-05-04T03:20:26.818Z,2.28
2023-05-04T03:22:53.333Z,1.95
2023-05-04T03:25:20.768Z,2.30
2023-05-04T03:27:47.267Z,2.22
2023-05-04T03:30:14.090Z,2.78
2023-05-04T03:32:42.754Z,1.92
2023-05-04T03:35:09.594Z,2.17
2023-05-04T03:37:36.359Z,1.85
2023-05-04T03:40:03.550Z,2.08
2023-05-04T03:42:30.278Z,2.17
2023-05-04T03:44:56.892Z,2.00
2023-05-04T03:47:23.511Z,2.20
2023-05-04T03:49:50.528Z,1.80
2023-05-04T03:52:17.107Z,2.30
2023-05-04T03:54:43.673Z,2.15
2023-05-04T03:57:13.461Z,2.05
2023-05-04T03:59:40.037Z,2.20
2023-05-04T04:02:06.794Z,2.25
2023-05-04T04:04:35.406Z,2.05
2023-05-04T04:07:01.996Z,2.17
2023-05-04T04:09:30.443Z,1.88
2023-05-04T04:11:57.441Z,1.83
2023-05-04T04:14:25.492Z,1.92
2023-05-04T04:16:52.049Z,1.98
2023-05-04T04:19:19.585Z,2.08
2023-05-04T04:21:46.166Z,2.08
2023-05-04T04:24:13.009Z,2.35
2023-05-04T04:26:40.024Z,2.28
2023-05-04T04:29:06.546Z,3.47
2023-05-04T04:31:35.569Z,2.33
2023-05-04T04:34:02.112Z,2.33
2023-05-04T04:36:28.646Z,2.13
2023-05-04T04:38:56.594Z,1.95
2023-05-04T04:41:23.207Z,2.35
2023-05-04T04:43:49.685Z,2.10
2023-05-04T04:46:16.614Z,1.80
2023-05-04T04:48:44.762Z,2.33
2023-05-04T04:51:12.295Z,2.50
2023-05-04T04:53:39.288Z,2.10
2023-05-04T04:56:07.359Z,1.77
2023-05-04T04:58:34.090Z,2.17
2023-05-04T05:01:02.588Z,2.13
2023-05-04T05:03:29.087Z,2.65
2023-05-04T05:05:55.853Z,2.00
2023-05-04T05:08:23.602Z,2.10
2023-05-04T05:10:50.149Z,1.80
2023-05-04T05:13:18.181Z,2.17
2023-05-04T05:15:45.604Z,2.13
2023-05-04T05:18:13.704Z,2.20
2023-05-04T05:20:40.392Z,2.28
2023-05-04T05:23:09.208Z,1.85
2023-05-04T05:25:38.701Z,2.80
2023-05-04T05:28:05.780Z,2.15
2023-05-04T05:30:32.523Z,2.08
2023-05-04T05:32:59.517Z,2.05
2023-05-04T05:35:26.169Z,2.30
2023-05-04T05:37:52.699Z,2.25
2023-05-04T05:40:19.468Z,2.10
2023-05-04T05:42:46.348Z,1.98
2023-05-04T05:45:13.346Z,2.00
2023-05-04T05:47:39.979Z,2.38
2023-05-04T05:50:07.635Z,2.55
2023-05-04T05:52:34.420Z,2.13
2023-05-04T05:55:02.680Z,2.80
2023-05-04T05:57:31.622Z,2.00
2023-05-04T05:59:58.449Z,2.20
2023-05-04T06:02:25.048Z,2.53
2023-05-04T06:04:51.749Z,2.00
2023-05-04T06:07:21.521Z,2.25
2023-05-04T06:09:48.024Z,2.20
2023-05-04T06:12:15.188Z,2.38
2023-05-04T06:14:41.961Z,2.00
2023-05-04T06:17:09.350Z,2.08
2023-05-04T06:19:38.190Z,2.30
2023-05-04T06:22:05.284Z,2.40
2023-05-04T06:24:33.083Z,2.20
2023-05-04T06:26:59.599Z,2.30
2023-05-04T06:29:26.107Z,1.90
2023-05-04T06:31:53.698Z,2.10
2023-05-04T06:34:20.387Z,1.67
2023-05-04T06:36:48.966Z,2.25
2023-05-04T06:39:15.791Z,1.92
2023-05-04T06:41:44.739Z,2.22
2023-05-04T06:44:11.424Z,2.28
2023-05-04T06:46:38.164Z,1.90
2023-05-04T06:49:05.474Z,2.47
2023-05-04T06:51:32.119Z,1.90
2023-05-04T06:54:01.846Z,1.98
2023-05-04T06:56:28.441Z,2.05
2023-05-04T06:58:55.063Z,1.85
2023-05-04T07:01:22.693Z,1.77
2023-05-04T07:03:49.437Z,1.90
2023-05-04T07:06:17.181Z,2.08
2023-05-04T07:08:44.065Z,1.80
2023-05-04T07:11:12.806Z,1.92
2023-05-04T07:13:39.372Z,2.45
2023-05-04T07:16:08.910Z,1.90
2023-05-04T07:18:36.134Z,1.67
2023-05-04T07:21:21.947Z,1.90
2023-05-04T07:23:49.350Z,2.00
2023-05-04T07:26:16.659Z,2.28
2023-05-04T07:28:46.891Z,2.42
2023-05-04T07:31:14.405Z,2.28
2023-05-04T07:33:41.087Z,2.10
2023-05-04T07:36:10.432Z,2.28
2023-05-04T07:38:38.571Z,2.10
2023-05-04T07:41:05.275Z,2.08
2023-05-04T07:43:31.895Z,1.85
2023-05-04T07:45:58.482Z,1.92
2023-05-04T07:48:26.663Z,1.83
2023-05-04T07:50:53.840Z,1.27
2023-05-04T07:53:25.545Z,1.92
2023-05-04T07:55:54.298Z,1.95
2023-05-04T07:58:24.109Z,2.28
2023-05-04T08:00:50.618Z,1.60
2023-05-04T08:03:17.337Z,1.83
2023-05-04T08:05:44.023Z,1.70
2023-05-04T08:08:12.913Z,1.80
2023-05-04T08:10:39.443Z,1.55
2023-05-04T08:13:06.133Z,1.50
2023-05-04T08:15:33.560Z,1.63
2023-05-04T08:18:00.274Z,2.00
2023-05-04T08:20:26.880Z,1.60
2023-05-04T08:22:53.695Z,1.60
2023-05-04T08:25:22.603Z,1.48
2023-05-04T08:27:49.506Z,1.92
2023-05-04T08:30:17.126Z,1.85
2023-05-04T08:32:43.944Z,1.35
2023-05-04T08:35:10.609Z,1.90
2023-05-04T08:37:37.478Z,1.80
2023-05-04T08:40:06.029Z,1.50
2023-05-04T08:42:34.120Z,1.42
2023-05-04T08:45:03.405Z,1.50
2023-05-04T08:47:30.128Z,2.03
2023-05-04T08:49:56.793Z,1.63
2023-05-04T08:52:25.465Z,1.67
2023-05-04T08:54:57.109Z,1.77
2023-05-04T08:57:26.127Z,1.63
2023-05-04T08:59:55.161Z,1.75
2023-05-04T09:02:25.755Z,1.40
2023-05-04T09:04:53.380Z,1.75
2023-05-04T09:07:21.659Z,1.75
2023-05-04T09:09:51.096Z,1.65
2023-05-04T09:12:18.618Z,1.67
2023-05-04T09:14:48.460Z,1.80
2023-05-04T09:17:29.375Z,1.60
2023-05-04T09:19:59.065Z,1.75
2023-05-04T09:22:27.052Z,1.70
2023-05-04T09:24:54.944Z,1.70
2023-05-04T09:27:22.334Z,1.58
2023-05-04T09:29:54.704Z,1.77
2023-05-04T09:32:21.329Z,1.65
2023-05-04T09:34:48.815Z,1.75
2023-05-04T09:37:15.582Z,1.80
2023-05-04T09:39:56.299Z,1.60
2023-05-04T09:42:26.995Z,2.10
2023-05-04T09:45:05.341Z,1.88
2023-05-04T09:47:41.850Z,2.00
2023-05-04T09:50:27.134Z,1.85
2023-05-04T09:52:54.944Z,1.80
2023-05-04T09:55:21.602Z,1.73
2023-05-04T09:57:50.265Z,1.80
2023-05-04T10:00:18.292Z,1.88
2023-05-04T10:02:46.558Z,2.13
2023-05-04T10:05:16.957Z,1.88
2023-05-04T10:07:46.530Z,1.80
2023-05-04T10:10:14.854Z,2.17
2023-05-04T10:12:41.619Z,2.28
2023-05-04T10:15:09.498Z,2.45
2023-05-04T10:17:57.870Z,1.92
2023-05-04T10:20:42.893Z,2.13
2023-05-04T10:23:36.929Z,2.03
2023-05-04T10:26:41.770Z,2.38
2023-05-04T10:29:23.638Z,2.20
2023-05-04T10:31:51.704Z,2.30
2023-05-04T10:34:29.978Z,2.00
2023-05-04T10:36:57.753Z,2.20
2023-05-04T10:39:26.666Z,2.45
2023-05-04T10:42:06.981Z,2.30
2023-05-04T10:44:36.587Z,2.72
2023-05-04T10:47:07.857Z,2.13
2023-05-04T10:49:37.976Z,2.17
2023-05-04T10:52:13.384Z,2.03
2023-05-04T10:54:41.309Z,2.28
2023-05-04T10:57:11.461Z,2.42
2023-05-04T10:59:39.903Z,2.20
2023-05-04T11:02:07.579Z,2.10
2023-05-04T11:04:34.796Z,2.58
2023-05-04T11:07:08.684Z,1.85
2023-05-04T11:09:38.019Z,2.20
2023-05-04T11:12:05.148Z,2.42
2023-05-04T11:14:32.093Z,2.40
2023-05-04T11:19:50.949Z,2.60
2023-05-04T11:22:18.100Z,2.28
2023-05-04T11:24:48.629Z,2.45
2023-05-04T11:27:23.536Z,2.80
2023-05-04T11:30:12.757Z,2.13
2023-05-04T11:32:46.676Z,2.10
2023-05-04T11:35:22.711Z,2.75
2023-05-04T11:37:50.631Z,2.50
2023-05-04T11:40:20.026Z,2.75
2023-05-04T11:42:48.342Z,3.00
2023-05-04T11:45:32.474Z,2.28
2023-05-04T11:48:00.225Z,2.70
2023-05-04T11:50:28.570Z,2.70
2023-05-04T11:53:24.249Z,2.30
2023-05-04T11:55:56.242Z,2.55
2023-05-04T11:58:26.874Z,2.58
2023-05-04T12:00:57.567Z,2.40
2023-05-04T12:03:52.344Z,2.47
2023-05-04T12:06:31.026Z,2.72
2023-05-04T12:09:02.828Z,2.85
2023-05-04T12:11:30.626Z,2.47
2023-05-04T12:14:06.918Z,2.70
2023-05-04T12:16:34.551Z,2.55
2023-05-04T12:19:09.104Z,2.33
2023-05-04T12:21:36.159Z,2.63
2023-05-04T12:24:03.452Z,2.50
2023-05-04T12:26:30.371Z,2.33
2023-05-04T12:28:57.036Z,2.40
2023-05-04T12:31:25.266Z,2.40
2023-05-04T12:33:53.694Z,2.35
2023-05-04T12:36:21.413Z,2.38
2023-05-04T12:38:47.949Z,2.80
2023-05-04T12:41:14.464Z,2.55
2023-05-04T12:43:40.964Z,2.30
2023-05-04T12:46:07.550Z,2.28
2023-05-04T12:48:35.652Z,2.85
2023-05-04T12:51:04.231Z,2.97
2023-05-04T12:53:34.219Z,2.85
2023-05-04T12:56:02.263Z,2.40
2023-05-04T12:58:28.878Z,2.25
2023-05-04T13:00:56.875Z,2.30
2023-05-04T13:03:29.189Z,2.05
2023-05-04T13:05:57.359Z,2.78
2023-05-04T13:08:24.051Z,2.78
2023-05-04T13:10:51.049Z,2.20
2023-05-04T13:13:19.289Z,2.53
2023-05-04T13:15:50.034Z,2.50
2023-05-04T13:18:16.898Z,2.72
2023-05-04T13:20:43.539Z,2.88
2023-05-04T13:23:10.119Z,2.50
2023-05-04T13:25:37.224Z,2.50
2023-05-04T13:28:04.024Z,2.90
2023-05-04T13:30:30.650Z,2.85
2023-05-04T13:32:57.394Z,2.75
2023-05-04T13:35:24.105Z,3.00
2023-05-04T13:37:51.478Z,2.65
2023-05-04T13:40:18.198Z,3.35
2023-05-04T13:42:44.775Z,2.63
2023-05-04T13:45:11.728Z,2.70
2023-05-04T13:47:39.900Z,2.72
2023-05-04T13:50:07.259Z,3.03
2023-05-04T13:52:33.874Z,2.95
2023-05-04T13:55:00.432Z,2.90
2023-05-04T13:57:30.256Z,3.05
2023-05-04T14:00:05.619Z,2.67
2023-05-04T14:02:37.253Z,2.88
2023-05-04T14:05:04.275Z,2.78
2023-05-04T14:07:31.213Z,2.95
2023-05-04T14:09:58.809Z,2.53
2023-05-04T14:12:25.395Z,2.75
2023-05-04T14:14:52.118Z,2.72
2023-05-04T14:17:18.677Z,3.20
2023-05-04T14:19:45.628Z,3.15
2023-05-04T14:22:12.277Z,3.33
2023-05-04T14:24:38.810Z,2.55
2023-05-04T14:27:05.301Z,2.90
2023-05-04T14:29:33.238Z,2.85
2023-05-04T14:32:00.935Z,2.85
2023-05-04T14:34:30.414Z,2.72
2023-05-04T14:36:57.614Z,2.97
2023-05-04T14:39:24.915Z,3.00
2023-05-04T14:41:53.179Z,3.05
2023-05-04T14:44:20.422Z,2.70
2023-05-04T14:46:46.964Z,3.17
2023-05-04T14:49:18.690Z,3.08
2023-05-04T14:51:51.551Z,3.55
2023-05-04T14:54:18.196Z,3.10
2023-05-04T14:56:44.747Z,2.97
2023-05-04T14:59:11.581Z,2.90
2023-05-04T15:01:38.116Z,3.30
2023-05-04T15:04:04.861Z,2.80
2023-05-04T15:06:32.771Z,3.10
2023-05-04T15:08:59.395Z,3.30
2023-05-04T15:11:26.125Z,2.80
2023-05-04T15:13:55.732Z,3.20
2023-05-04T15:16:22.353Z,3.45
2023-05-04T15:18:48.954Z,3.72
2023-05-04T15:21:16.010Z,3.20
2023-05-04T15:23:42.513Z,2.90
2023-05-04T15:26:09.044Z,2.80
2023-05-04T15:28:36.139Z,3.35
2023-05-04T15:31:05.030Z,3.97
2023-05-04T15:33:32.160Z,2.88
2023-05-04T15:35:58.934Z,2.95
2023-05-04T15:38:26.696Z,3.30
2023-05-04T15:40:53.487Z,3.05
2023-05-04T15:43:20.042Z,3.13
2023-05-04T15:45:46.567Z,3.00
2023-05-04T15:48:13.043Z,3.13
2023-05-04T15:50:39.580Z,2.60
2023-05-04T15:53:06.144Z,2.65
2023-05-04T15:55:32.624Z,3.50
2023-05-04T15:57:59.147Z,2.80
2023-05-04T16:00:25.939Z,2.80
2023-05-04T16:02:52.681Z,2.90
2023-05-04T16:05:20.458Z,2.50
2023-05-04T16:07:47.133Z,2.35
2023-05-04T16:10:13.944Z,2.72
2023-05-04T16:12:41.249Z,2.70
2023-05-04T16:15:08.229Z,2.63
2023-05-04T16:17:35.449Z,2.58
2023-05-04T16:20:03.661Z,2.40
2023-05-04T16:22:30.957Z,2.60
2023-05-04T16:24:57.889Z,2.55
2023-05-04T16:27:26.722Z,2.65
2023-05-04T16:29:53.587Z,2.80
2023-05-04T16:32:20.613Z,2.72
2023-05-04T16:34:47.598Z,2.45
2023-05-04T16:37:14.216Z,2.53
2023-05-04T16:39:40.851Z,2.50
2023-05-04T16:42:07.392Z,2.50
2023-05-04T16:44:34.013Z,2.42
2023-05-04T16:47:00.629Z,2.22
2023-05-04T16:49:27.294Z,2.72
2023-05-04T16:51:55.232Z,2.45
2023-05-04T16:54:23.208Z,2.40
2023-05-04T16:56:49.863Z,2.75
2023-05-04T16:59:16.736Z,2.50
2023-05-04T17:01:44.112Z,2.20
2023-05-04T17:04:10.924Z,2.60
2023-05-04T17:06:38.054Z,2.60
2023-05-04T17:09:04.910Z,2.28
2023-05-04T17:11:32.037Z,2.47
2023-05-04T17:13:59.801Z,2.20
2023-05-04T17:16:26.607Z,2.60
2023-05-04T17:18:53.221Z,2.60
2023-05-04T17:21:19.795Z,2.78
2023-05-04T17:23:46.377Z,2.60
2023-05-04T17:26:12.950Z,2.05
2023-05-04T17:28:39.447Z,2.40
2023-05-04T17:31:06.167Z,2.55
2023-05-04T17:33:32.728Z,2.63
2023-05-04T17:35:59.240Z,2.08
2023-05-04T17:38:26.172Z,2.22
2023-05-04T17:40:52.864Z,2.00
2023-05-04T17:43:19.510Z,2.03
2023-05-04T17:45:46.083Z,1.48
2023-05-04T17:48:12.853Z,1.77
2023-05-04T17:50:40.831Z,2.20
2023-05-04T17:53:07.574Z,2.28
2023-05-04T17:55:34.154Z,1.88
2023-05-04T17:58:02.342Z,2.10
2023-05-04T18:00:28.963Z,2.13
2023-05-04T18:02:55.750Z,1.70
2023-05-04T18:05:22.445Z,2.03
2023-05-04T18:07:49.103Z,1.98
2023-05-04T18:10:15.697Z,2.15
2023-05-04T18:12:42.454Z,1.90
2023-05-04T18:15:09.861Z,1.75
2023-05-04T18:17:37.988Z,1.80
2023-05-04T18:20:08.979Z,1.58
2023-05-04T18:22:36.159Z,2.13
2023-05-04T18:25:02.795Z,1.50
2023-05-04T18:27:33.477Z,1.70
2023-05-04T18:30:00.942Z,1.85
2023-05-04T18:32:27.639Z,1.85
2023-05-04T18:34:54.868Z,1.92
2023-05-04T18:37:21.659Z,2.05
2023-05-04T18:39:48.101Z,1.77
2023-05-04T18:42:14.683Z,2.30
2023-05-04T18:44:41.517Z,1.85
2023-05-04T18:47:08.577Z,1.90
2023-05-04T18:49:35.078Z,1.83
2023-05-04T18:52:01.803Z,1.50
2023-05-04T18:54:32.453Z,1.92
2023-05-04T18:56:59.251Z,1.90
2023-05-04T18:59:26.198Z,1.90
2023-05-04T19:01:55.489Z,1.67
2023-05-04T19:04:22.434Z,1.98
2023-05-04T19:06:51.673Z,2.00
2023-05-04T19:09:18.758Z,1.75
2023-05-04T19:11:46.681Z,1.70
2023-05-04T19:14:13.778Z,1.80
2023-05-04T19:16:40.876Z,1.60
2023-05-04T19:19:07.621Z,2.28
2023-05-04T19:21:34.326Z,2.50
2023-05-04T19:24:00.843Z,1.98
2023-05-04T19:26:27.383Z,2.20
2023-05-04T19:28:53.980Z,2.05
2023-05-04T19:31:20.631Z,2.03
2023-05-04T19:33:48.739Z,1.77
2023-05-04T19:36:16.871Z,2.05
2023-05-04T19:38:43.626Z,2.03
2023-05-04T19:41:10.175Z,2.13
2023-05-04T19:43:38.425Z,2.10
2023-05-04T19:46:05.056Z,2.08
2023-05-04T19:48:31.603Z,2.22
2023-05-04T19:50:58.196Z,2.63
2023-05-04T19:53:24.909Z,2.67
2023-05-04T19:55:51.453Z,2.28
2023-05-04T19:58:18.026Z,2.28
2023-05-04T20:00:44.589Z,2.25
2023-05-04T20:03:11.139Z,1.88
2023-05-04T20:05:38.474Z,2.25
2023-05-04T20:08:05.416Z,2.00
2023-05-04T20:10:32.258Z,2.30
2023-05-04T20:12:58.982Z,2.40
2023-05-04T20:15:25.958Z,2.25
2023-05-04T20:17:52.893Z,2.15
2023-05-04T20:20:21.548Z,2.78
2023-05-04T20:22:52.021Z,2.00
2023-05-04T20:25:19.848Z,2.25
2023-05-04T20:27:48.623Z,2.47
2023-05-04T20:30:15.622Z,2.25
2023-05-04T20:32:44.054Z,2.50
2023-05-04T20:35:10.850Z,2.30
2023-05-04T20:37:37.453Z,2.70
2023-05-04T20:40:04.481Z,2.38
2023-05-04T20:42:31.144Z,2.33
2023-05-04T20:44:57.605Z,2.70
2023-05-04T20:47:24.116Z,2.78
2023-05-04T20:49:50.600Z,2.50
2023-05-04T20:52:17.094Z,2.30
2023-05-04T20:54:43.533Z,2.80
2023-05-04T20:57:10.334Z,2.30
2023-05-04T20:59:36.888Z,2.30
2023-05-04T21:02:03.480Z,2.28
2023-05-04T21:04:29.925Z,2.28
2023-05-04T21:06:57.426Z,2.35
2023-05-04T21:09:24.002Z,2.40
2023-05-04T21:11:50.511Z,2.30
2023-05-04T21:14:17.017Z,2.47
2023-05-04T21:16:43.599Z,2.72
2023-05-04T21:19:10.262Z,2.42
2023-05-04T21:21:40.734Z,2.45
2023-05-04T21:24:12.305Z,2.42
2023-05-04T21:26:39.220Z,2.53
2023-05-04T21:29:05.851Z,2.03
2023-05-04T21:31:33.513Z,2.67
2023-05-04T21:34:00.211Z,2.50
2023-05-04T21:36:27.439Z,2.55
2023-05-04T21:38:55.364Z,2.58
2023-05-04T21:41:22.540Z,2.15
2023-05-04T21:43:49.170Z,2.38
2023-05-04T21:46:16.265Z,2.33
2023-05-04T21:48:42.909Z,2.60
2023-05-04T21:51:09.502Z,2.83
2023-05-04T21:53:36.408Z,2.58
2023-05-04T21:56:07.658Z,2.75
2023-05-04T21:58:34.946Z,3.00
2023-05-04T22:01:01.565Z,2.42
2023-05-04T22:03:29.722Z,2.40
2023-05-04T22:05:57.928Z,2.83
2023-05-04T22:08:28.853Z,2.70
2023-05-04T22:10:56.883Z,2.70
2023-05-04T22:13:23.542Z,2.80
2023-05-04T22:15:50.832Z,2.83
2023-05-04T22:18:17.993Z,2.55
2023-05-04T22:20:44.843Z,2.90
2023-05-04T22:23:11.879Z,2.75
2023-05-04T22:25:38.778Z,2.92
2023-05-04T22:28:06.003Z,2.80
2023-05-04T22:30:32.564Z,2.47
2023-05-04T22:32:59.322Z,3.10
2023-05-04T22:35:26.241Z,2.85
2023-05-04T22:37:53.116Z,2.70
2023-05-04T22:40:19.843Z,2.90
2023-05-04T22:42:46.380Z,2.72
2023-05-04T22:45:18.196Z,2.72
2023-05-04T22:47:45.670Z,2.42
2023-05-04T22:50:12.401Z,2.63
2023-05-04T22:52:39.404Z,3.10
2023-05-04T22:55:06.589Z,3.17
2023-05-04T22:57:33.041Z,3.10
2023-05-04T22:59:59.616Z,2.80
2023-05-04T23:02:26.209Z,3.00
2023-05-04T23:04:53.206Z,3.30
2023-05-04T23:07:19.859Z,3.03
2023-05-04T23:09:47.077Z,2.95
2023-05-04T23:12:14.051Z,2.75
2023-05-04T23:14:41.160Z,3.38
2023-05-04T23:17:07.738Z,2.60
2023-05-04T23:19:34.309Z,2.90
2023-05-04T23:22:00.968Z,2.95
2023-05-04T23:24:27.445Z,2.97
2023-05-04T23:26:54.172Z,3.40
2023-05-04T23:29:20.871Z,3.30
2023-05-04T23:31:47.602Z,3.33
2023-05-04T23:34:14.114Z,3.30
2023-05-04T23:36:40.761Z,4.07
2023-05-04T23:39:07.518Z,3.65
2023-05-04T23:41:34.207Z,3.90
2023-05-04T23:44:01.869Z,3.60
2023-05-04T23:46:28.499Z,3.20
2023-05-04T23:48:55.394Z,3.83
2023-05-04T23:51:22.098Z,3.70
2023-05-04T23:53:48.707Z,3.40
2023-05-04T23:56:15.549Z,3.47
2023-05-04T23:58:42.194Z,3.50
